sensor_id;sensor_type;location;lat;lon;timestamp;P1;durP1;ratioP1;P2;durP2;ratioP2
8656;SDS011;4366;50.764;7.184;2022-07-06T00:04:40;1.70;;;1.30;;
8656;SDS011;4366;50.764;7.184;2022-07-06T00:09:41;3.17;;;1.53;;
8656;SDS011;4366;50.764;7.184;2022-07-06T00:14:43;1.23;;;1.13;;
8656;SDS011;4366;50.764;7.184;2022-07-06T00:19:45;1.20;;;1.20;;
8656;SDS011;4366;50.764;7.184;2022-07-06T00:24:46;1.40;;;1.30;;
8656;SDS011;4366;50.764;7.184;2022-07-06T00:29:48;3.37;;;1.40;;
8656;SDS011;4366;50.764;7.184;2022-07-06T00:34:49;1.50;;;1.40;;
8656;SDS011;4366;50.764;7.184;2022-07-06T00:39:51;1.37;;;1.20;;
8656;SDS011;4366;50.764;7.184;2022-07-06T00:44:53;2.70;;;1.33;;
8656;SDS011;4366;50.764;7.184;2022-07-06T00:49:54;3.13;;;1.20;;
8656;SDS011;4366;50.764;7.184;2022-07-06T00:55:16;1.50;;;1.20;;
8656;SDS011;4366;50.764;7.184;2022-07-06T01:00:23;1.30;;;1.30;;
8656;SDS011;4366;50.764;7.184;2022-07-06T01:05:26;2.63;;;1.30;;
8656;SDS011;4366;50.764;7.184;2022-07-06T01:10:28;1.23;;;1.13;;
8656;SDS011;4366;50.764;7.184;2022-07-06T01:15:30;1.73;;;1.63;;
8656;SDS011;4366;50.764;7.184;2022-07-06T01:20:31;1.97;;;1.63;;
8656;SDS011;4366;50.764;7.184;2022-07-06T01:25:33;1.43;;;1.33;;
8656;SDS011;4366;50.764;7.184;2022-07-06T01:30:35;1.57;;;1.47;;
8656;SDS011;4366;50.764;7.184;2022-07-06T01:35:37;2.13;;;1.60;;
8656;SDS011;4366;50.764;7.184;2022-07-06T01:40:39;1.30;;;1.30;;
8656;SDS011;4366;50.764;7.184;2022-07-06T01:45:41;1.50;;;1.40;;
8656;SDS011;4366;50.764;7.184;2022-07-06T01:50:43;2.10;;;1.90;;
8656;SDS011;4366;50.764;7.184;2022-07-06T01:55:45;1.47;;;1.47;;
8656;SDS011;4366;50.764;7.184;2022-07-06T02:00:47;2.10;;;2.00;;
8656;SDS011;4366;50.764;7.184;2022-07-06T02:05:49;1.90;;;1.67;;
8656;SDS011;4366;50.764;7.184;2022-07-06T02:10:51;2.27;;;1.80;;
8656;SDS011;4366;50.764;7.184;2022-07-06T02:15:53;1.70;;;1.60;;
8656;SDS011;4366;50.764;7.184;2022-07-06T02:20:55;2.07;;;1.70;;
8656;SDS011;4366;50.764;7.184;2022-07-06T02:25:57;2.00;;;1.80;;
8656;SDS011;4366;50.764;7.184;2022-07-06T02:31:00;1.60;;;1.60;;
8656;SDS011;4366;50.764;7.184;2022-07-06T02:36:03;2.63;;;2.17;;
8656;SDS011;4366;50.764;7.184;2022-07-06T02:41:05;2.17;;;2.00;;
8656;SDS011;4366;50.764;7.184;2022-07-06T02:46:07;2.00;;;1.77;;
8656;SDS011;4366;50.764;7.184;2022-07-06T02:51:10;1.93;;;1.63;;
8656;SDS011;4366;50.764;7.184;2022-07-06T02:56:11;2.07;;;1.57;;
8656;SDS011;4366;50.764;7.184;2022-07-06T03:01:14;1.77;;;1.67;;
8656;SDS011;4366;50.764;7.184;2022-07-06T03:06:16;2.20;;;1.90;;
8656;SDS011;4366;50.764;7.184;2022-07-06T03:11:18;2.17;;;1.73;;
8656;SDS011;4366;50.764;7.184;2022-07-06T03:16:21;2.17;;;1.97;;
8656;SDS011;4366;50.764;7.184;2022-07-06T03:21:26;5.30;;;2.10;;
8656;SDS011;4366;50.764;7.184;2022-07-06T03:26:28;2.07;;;1.90;;
8656;SDS011;4366;50.764;7.184;2022-07-06T03:31:32;2.30;;;1.87;;
8656;SDS011;4366;50.764;7.184;2022-07-06T03:36:33;2.03;;;1.90;;
8656;SDS011;4366;50.764;7.184;2022-07-06T03:41:40;2.10;;;2.00;;
8656;SDS011;4366;50.764;7.184;2022-07-06T03:46:43;2.50;;;1.70;;
8656;SDS011;4366;50.764;7.184;2022-07-06T03:51:46;2.47;;;1.97;;
8656;SDS011;4366;50.764;7.184;2022-07-06T03:56:48;2.13;;;1.90;;
8656;SDS011;4366;50.764;7.184;2022-07-06T04:01:50;2.00;;;1.90;;
8656;SDS011;4366;50.764;7.184;2022-07-06T04:06:54;1.90;;;1.70;;
8656;SDS011;4366;50.764;7.184;2022-07-06T04:11:58;2.10;;;2.00;;
8656;SDS011;4366;50.764;7.184;2022-07-06T04:17:00;2.70;;;1.80;;
8656;SDS011;4366;50.764;7.184;2022-07-06T04:22:23;2.17;;;1.80;;
8656;SDS011;4366;50.764;7.184;2022-07-06T04:27:25;1.73;;;1.63;;
8656;SDS011;4366;50.764;7.184;2022-07-06T04:32:27;1.80;;;1.70;;
8656;SDS011;4366;50.764;7.184;2022-07-06T04:37:29;2.43;;;1.83;;
8656;SDS011;4366;50.764;7.184;2022-07-06T04:42:31;1.93;;;1.83;;
8656;SDS011;4366;50.764;7.184;2022-07-06T04:47:33;2.20;;;2.10;;
8656;SDS011;4366;50.764;7.184;2022-07-06T04:52:36;2.20;;;1.90;;
8656;SDS011;4366;50.764;7.184;2022-07-06T04:57:39;1.90;;;1.80;;
8656;SDS011;4366;50.764;7.184;2022-07-06T05:02:40;2.23;;;2.03;;
8656;SDS011;4366;50.764;7.184;2022-07-06T05:07:42;2.37;;;2.17;;
8656;SDS011;4366;50.764;7.184;2022-07-06T05:12:44;2.23;;;2.03;;
8656;SDS011;4366;50.764;7.184;2022-07-06T05:17:48;2.23;;;1.83;;
8656;SDS011;4366;50.764;7.184;2022-07-06T05:22:50;2.13;;;2.00;;
8656;SDS011;4366;50.764;7.184;2022-07-06T05:27:56;3.37;;;2.00;;
8656;SDS011;4366;50.764;7.184;2022-07-06T05:32:58;2.37;;;2.13;;
8656;SDS011;4366;50.764;7.184;2022-07-06T05:38:00;2.03;;;1.90;;
8656;SDS011;4366;50.764;7.184;2022-07-06T05:43:02;3.20;;;1.87;;
8656;SDS011;4366;50.764;7.184;2022-07-06T05:48:04;2.10;;;2.00;;
8656;SDS011;4366;50.764;7.184;2022-07-06T05:53:26;2.23;;;2.03;;
8656;SDS011;4366;50.764;7.184;2022-07-06T05:58:30;5.50;;;1.87;;
8656;SDS011;4366;50.764;7.184;2022-07-06T06:03:33;2.13;;;2.03;;
8656;SDS011;4366;50.764;7.184;2022-07-06T06:08:37;1.70;;;1.60;;
8656;SDS011;4366;50.764;7.184;2022-07-06T06:13:39;2.27;;;2.07;;
8656;SDS011;4366;50.764;7.184;2022-07-06T06:18:41;6.00;;;2.20;;
8656;SDS011;4366;50.764;7.184;2022-07-06T06:23:44;1.60;;;1.50;;
8656;SDS011;4366;50.764;7.184;2022-07-06T06:28:46;1.97;;;1.70;;
8656;SDS011;4366;50.764;7.184;2022-07-06T06:33:47;1.70;;;1.60;;
8656;SDS011;4366;50.764;7.184;2022-07-06T06:38:49;2.50;;;1.23;;
8656;SDS011;4366;50.764;7.184;2022-07-06T06:43:57;2.73;;;1.33;;
8656;SDS011;4366;50.764;7.184;2022-07-06T06:49:02;2.37;;;1.60;;
8656;SDS011;4366;50.764;7.184;2022-07-06T06:54:04;1.27;;;1.10;;
8656;SDS011;4366;50.764;7.184;2022-07-06T06:59:06;1.77;;;1.07;;
8656;SDS011;4366;50.764;7.184;2022-07-06T07:04:18;1.60;;;1.17;;
8656;SDS011;4366;50.764;7.184;2022-07-06T07:09:20;2.50;;;1.23;;
8656;SDS011;4366;50.764;7.184;2022-07-06T07:14:21;2.93;;;1.17;;
8656;SDS011;4366;50.764;7.184;2022-07-06T07:19:23;0.90;;;0.90;;
8656;SDS011;4366;50.764;7.184;2022-07-06T07:24:25;2.40;;;0.90;;
8656;SDS011;4366;50.764;7.184;2022-07-06T07:29:26;1.13;;;1.13;;
8656;SDS011;4366;50.764;7.184;2022-07-06T07:34:28;1.27;;;0.90;;
8656;SDS011;4366;50.764;7.184;2022-07-06T07:39:30;0.40;;;0.40;;
8656;SDS011;4366;50.764;7.184;2022-07-06T07:44:31;0.83;;;0.50;;
8656;SDS011;4366;50.764;7.184;2022-07-06T07:49:33;2.17;;;0.70;;
8656;SDS011;4366;50.764;7.184;2022-07-06T07:54:35;1.37;;;0.60;;
8656;SDS011;4366;50.764;7.184;2022-07-06T07:59:37;0.60;;;0.60;;
8656;SDS011;4366;50.764;7.184;2022-07-06T08:04:38;1.87;;;0.77;;
8656;SDS011;4366;50.764;7.184;2022-07-06T08:09:40;0.90;;;0.50;;
8656;SDS011;4366;50.764;7.184;2022-07-06T08:14:42;0.50;;;0.50;;
8656;SDS011;4366;50.764;7.184;2022-07-06T08:19:43;0.87;;;0.73;;
8656;SDS011;4366;50.764;7.184;2022-07-06T08:24:45;1.80;;;0.87;;
8656;SDS011;4366;50.764;7.184;2022-07-06T08:29:47;1.10;;;0.47;;
8656;SDS011;4366;50.764;7.184;2022-07-06T08:34:48;0.50;;;0.50;;
8656;SDS011;4366;50.764;7.184;2022-07-06T08:39:50;0.57;;;0.57;;
8656;SDS011;4366;50.764;7.184;2022-07-06T08:44:52;0.80;;;0.80;;
8656;SDS011;4366;50.764;7.184;2022-07-06T08:49:55;1.70;;;0.53;;
8656;SDS011;4366;50.764;7.184;2022-07-06T08:54:57;1.63;;;0.70;;
8656;SDS011;4366;50.764;7.184;2022-07-06T08:59:59;0.63;;;0.63;;
8656;SDS011;4366;50.764;7.184;2022-07-06T09:05:02;3.33;;;0.80;;
8656;SDS011;4366;50.764;7.184;2022-07-06T09:10:04;0.87;;;0.53;;
8656;SDS011;4366;50.764;7.184;2022-07-06T09:15:07;1.13;;;1.03;;
8656;SDS011;4366;50.764;7.184;2022-07-06T09:20:10;0.50;;;0.50;;
8656;SDS011;4366;50.764;7.184;2022-07-06T09:25:13;0.83;;;0.80;;
8656;SDS011;4366;50.764;7.184;2022-07-06T09:30:16;1.57;;;1.00;;
8656;SDS011;4366;50.764;7.184;2022-07-06T09:35:19;2.20;;;0.90;;
8656;SDS011;4366;50.764;7.184;2022-07-06T09:40:32;0.67;;;0.67;;
8656;SDS011;4366;50.764;7.184;2022-07-06T09:45:37;1.43;;;0.80;;
8656;SDS011;4366;50.764;7.184;2022-07-06T09:50:43;1.33;;;0.90;;
8656;SDS011;4366;50.764;7.184;2022-07-06T09:55:48;2.20;;;1.00;;
8656;SDS011;4366;50.764;7.184;2022-07-06T10:00:51;1.33;;;1.23;;
8656;SDS011;4366;50.764;7.184;2022-07-06T10:05:54;1.20;;;1.10;;
8656;SDS011;4366;50.764;7.184;2022-07-06T10:10:56;1.37;;;1.27;;
8656;SDS011;4366;50.764;7.184;2022-07-06T10:15:58;1.10;;;1.00;;
8656;SDS011;4366;50.764;7.184;2022-07-06T10:20:59;3.67;;;1.20;;
8656;SDS011;4366;50.764;7.184;2022-07-06T10:26:01;1.30;;;1.20;;
8656;SDS011;4366;50.764;7.184;2022-07-06T10:31:10;1.40;;;1.20;;
8656;SDS011;4366;50.764;7.184;2022-07-06T10:36:12;4.13;;;1.90;;
8656;SDS011;4366;50.764;7.184;2022-07-06T10:41:14;1.17;;;1.10;;
8656;SDS011;4366;50.764;7.184;2022-07-06T10:46:16;1.00;;;1.00;;
8656;SDS011;4366;50.764;7.184;2022-07-06T10:51:24;1.17;;;1.17;;
8656;SDS011;4366;50.764;7.184;2022-07-06T10:56:36;3.10;;;1.30;;
8656;SDS011;4366;50.764;7.184;2022-07-06T11:07:19;0.67;;;0.63;;
8656;SDS011;4366;50.764;7.184;2022-07-06T11:12:21;0.60;;;0.60;;
8656;SDS011;4366;50.764;7.184;2022-07-06T11:17:23;0.80;;;0.57;;
8656;SDS011;4366;50.764;7.184;2022-07-06T11:22:26;0.80;;;0.57;;
8656;SDS011;4366;50.764;7.184;2022-07-06T11:27:28;0.57;;;0.53;;
8656;SDS011;4366;50.764;7.184;2022-07-06T11:32:30;0.70;;;0.53;;
8656;SDS011;4366;50.764;7.184;2022-07-06T11:37:32;1.70;;;0.93;;
8656;SDS011;4366;50.764;7.184;2022-07-06T11:42:34;1.00;;;0.90;;
8656;SDS011;4366;50.764;7.184;2022-07-06T11:47:37;0.70;;;0.70;;
8656;SDS011;4366;50.764;7.184;2022-07-06T11:52:38;2.30;;;0.97;;
8656;SDS011;4366;50.764;7.184;2022-07-06T11:57:40;1.43;;;1.33;;
8656;SDS011;4366;50.764;7.184;2022-07-06T12:02:58;0.60;;;0.60;;
8656;SDS011;4366;50.764;7.184;2022-07-06T12:08:04;1.00;;;0.63;;
8656;SDS011;4366;50.764;7.184;2022-07-06T12:13:06;0.90;;;0.90;;
8656;SDS011;4366;50.764;7.184;2022-07-06T12:18:08;1.37;;;1.17;;
8656;SDS011;4366;50.764;7.184;2022-07-06T12:23:10;1.10;;;0.63;;
8656;SDS011;4366;50.764;7.184;2022-07-06T12:28:45;0.87;;;0.73;;
8656;SDS011;4366;50.764;7.184;2022-07-06T12:33:39;0.70;;;0.70;;
8656;SDS011;4366;50.764;7.184;2022-07-06T12:38:57;2.50;;;0.90;;
8656;SDS011;4366;50.764;7.184;2022-07-06T12:44:09;1.70;;;0.80;;
8656;SDS011;4366;50.764;7.184;2022-07-06T12:49:18;1.77;;;1.20;;
8656;SDS011;4366;50.764;7.184;2022-07-06T12:54:22;1.00;;;1.00;;
8656;SDS011;4366;50.764;7.184;2022-07-06T12:59:25;1.27;;;1.20;;
8656;SDS011;4366;50.764;7.184;2022-07-06T13:04:28;0.87;;;0.87;;
8656;SDS011;4366;50.764;7.184;2022-07-06T13:09:33;0.70;;;0.70;;
8656;SDS011;4366;50.764;7.184;2022-07-06T13:14:34;0.93;;;0.73;;
8656;SDS011;4366;50.764;7.184;2022-07-06T13:19:36;1.47;;;0.77;;
8656;SDS011;4366;50.764;7.184;2022-07-06T13:24:37;0.80;;;0.80;;
8656;SDS011;4366;50.764;7.184;2022-07-06T13:29:39;0.77;;;0.50;;
8656;SDS011;4366;50.764;7.184;2022-07-06T13:34:41;0.77;;;0.50;;
8656;SDS011;4366;50.764;7.184;2022-07-06T13:39:43;0.80;;;0.80;;
8656;SDS011;4366;50.764;7.184;2022-07-06T13:44:44;0.93;;;0.70;;
8656;SDS011;4366;50.764;7.184;2022-07-06T13:49:46;1.03;;;0.80;;
8656;SDS011;4366;50.764;7.184;2022-07-06T13:54:49;0.70;;;0.70;;
8656;SDS011;4366;50.764;7.184;2022-07-06T13:59:51;0.90;;;0.90;;
8656;SDS011;4366;50.764;7.184;2022-07-06T14:04:52;0.90;;;0.90;;
8656;SDS011;4366;50.764;7.184;2022-07-06T14:09:54;1.95;;;0.90;;
8656;SDS011;4366;50.764;7.184;2022-07-06T14:14:56;0.98;;;0.98;;
8656;SDS011;4366;50.764;7.184;2022-07-06T14:19:57;0.80;;;0.80;;
8656;SDS011;4366;50.764;7.184;2022-07-06T14:24:59;0.80;;;0.80;;
8656;SDS011;4366;50.764;7.184;2022-07-06T14:30:02;1.45;;;0.73;;
8656;SDS011;4366;50.764;7.184;2022-07-06T14:35:04;0.73;;;0.73;;
8656;SDS011;4366;50.764;7.184;2022-07-06T14:40:06;1.85;;;0.77;;
8656;SDS011;4366;50.764;7.184;2022-07-06T14:45:08;0.77;;;0.77;;
8656;SDS011;4366;50.764;7.184;2022-07-06T14:50:10;0.93;;;0.93;;
8656;SDS011;4366;50.764;7.184;2022-07-06T14:55:11;0.90;;;0.75;;
8656;SDS011;4366;50.764;7.184;2022-07-06T15:00:15;1.17;;;0.80;;
8656;SDS011;4366;50.764;7.184;2022-07-06T15:05:17;0.83;;;0.77;;
8656;SDS011;4366;50.764;7.184;2022-07-06T15:10:19;1.13;;;0.70;;
8656;SDS011;4366;50.764;7.184;2022-07-06T15:15:21;0.70;;;0.70;;
8656;SDS011;4366;50.764;7.184;2022-07-06T15:20:42;1.95;;;0.90;;
8656;SDS011;4366;50.764;7.184;2022-07-06T15:25:44;0.40;;;0.40;;
8656;SDS011;4366;50.764;7.184;2022-07-06T15:30:55;0.93;;;0.77;;
8656;SDS011;4366;50.764;7.184;2022-07-06T15:35:56;2.30;;;0.80;;
8656;SDS011;4366;50.764;7.184;2022-07-06T15:40:58;0.85;;;0.70;;
8656;SDS011;4366;50.764;7.184;2022-07-06T15:46:03;0.60;;;0.60;;
8656;SDS011;4366;50.764;7.184;2022-07-06T15:51:05;2.13;;;0.98;;
8656;SDS011;4366;50.764;7.184;2022-07-06T15:56:07;0.93;;;0.82;;
8656;SDS011;4366;50.764;7.184;2022-07-06T16:01:09;0.80;;;0.60;;
8656;SDS011;4366;50.764;7.184;2022-07-06T16:06:11;1.17;;;0.80;;
8656;SDS011;4366;50.764;7.184;2022-07-06T16:11:13;1.53;;;0.67;;
8656;SDS011;4366;50.764;7.184;2022-07-06T16:16:15;2.08;;;0.95;;
8656;SDS011;4366;50.764;7.184;2022-07-06T16:21:17;1.03;;;0.90;;
8656;SDS011;4366;50.764;7.184;2022-07-06T16:26:19;0.50;;;0.50;;
8656;SDS011;4366;50.764;7.184;2022-07-06T16:31:20;0.80;;;0.70;;
8656;SDS011;4366;50.764;7.184;2022-07-06T16:36:22;0.40;;;0.40;;
8656;SDS011;4366;50.764;7.184;2022-07-06T16:41:24;0.57;;;0.50;;
8656;SDS011;4366;50.764;7.184;2022-07-06T16:46:26;0.60;;;0.60;;
8656;SDS011;4366;50.764;7.184;2022-07-06T16:51:27;1.05;;;0.70;;
8656;SDS011;4366;50.764;7.184;2022-07-06T16:56:29;0.40;;;0.40;;
8656;SDS011;4366;50.764;7.184;2022-07-06T17:01:30;0.33;;;0.33;;
8656;SDS011;4366;50.764;7.184;2022-07-06T17:06:32;0.60;;;0.60;;
8656;SDS011;4366;50.764;7.184;2022-07-06T17:11:35;1.02;;;0.98;;
8656;SDS011;4366;50.764;7.184;2022-07-06T17:16:36;0.70;;;0.70;;
8656;SDS011;4366;50.764;7.184;2022-07-06T17:21:38;0.77;;;0.77;;
8656;SDS011;4366;50.764;7.184;2022-07-06T17:26:40;1.60;;;0.70;;
8656;SDS011;4366;50.764;7.184;2022-07-06T17:31:41;1.40;;;0.77;;
8656;SDS011;4366;50.764;7.184;2022-07-06T17:36:43;0.63;;;0.63;;
8656;SDS011;4366;50.764;7.184;2022-07-06T17:41:45;0.93;;;0.87;;
8656;SDS011;4366;50.764;7.184;2022-07-06T17:46:47;1.67;;;0.90;;
8656;SDS011;4366;50.764;7.184;2022-07-06T17:51:48;0.40;;;0.40;;
8656;SDS011;4366;50.764;7.184;2022-07-06T17:56:50;1.20;;;0.75;;
8656;SDS011;4366;50.764;7.184;2022-07-06T18:01:51;1.63;;;0.60;;
8656;SDS011;4366;50.764;7.184;2022-07-06T18:06:53;0.47;;;0.47;;
8656;SDS011;4366;50.764;7.184;2022-07-06T18:11:55;0.73;;;0.73;;
8656;SDS011;4366;50.764;7.184;2022-07-06T18:16:57;0.70;;;0.70;;
8656;SDS011;4366;50.764;7.184;2022-07-06T18:21:59;1.50;;;0.60;;
8656;SDS011;4366;50.764;7.184;2022-07-06T18:27:01;0.67;;;0.67;;
8656;SDS011;4366;50.764;7.184;2022-07-06T18:32:02;3.87;;;0.80;;
8656;SDS011;4366;50.764;7.184;2022-07-06T18:37:04;1.07;;;0.73;;
8656;SDS011;4366;50.764;7.184;2022-07-06T18:42:06;0.80;;;0.80;;
8656;SDS011;4366;50.764;7.184;2022-07-06T18:47:08;0.80;;;0.80;;
8656;SDS011;4366;50.764;7.184;2022-07-06T18:52:09;0.80;;;0.80;;
8656;SDS011;4366;50.764;7.184;2022-07-06T18:57:11;0.80;;;0.80;;
8656;SDS011;4366;50.764;7.184;2022-07-06T19:02:12;1.95;;;1.13;;
8656;SDS011;4366;50.764;7.184;2022-07-06T19:07:14;1.03;;;0.73;;
8656;SDS011;4366;50.764;7.184;2022-07-06T19:12:16;1.70;;;0.57;;
8656;SDS011;4366;50.764;7.184;2022-07-06T19:17:17;0.93;;;0.70;;
8656;SDS011;4366;50.764;7.184;2022-07-06T19:22:19;0.70;;;0.70;;
8656;SDS011;4366;50.764;7.184;2022-07-06T19:27:20;0.60;;;0.60;;
8656;SDS011;4366;50.764;7.184;2022-07-06T19:32:22;1.73;;;0.50;;
8656;SDS011;4366;50.764;7.184;2022-07-06T19:37:24;0.57;;;0.57;;
8656;SDS011;4366;50.764;7.184;2022-07-06T19:42:26;0.93;;;0.80;;
8656;SDS011;4366;50.764;7.184;2022-07-06T19:47:28;1.87;;;0.53;;
8656;SDS011;4366;50.764;7.184;2022-07-06T19:52:29;1.77;;;0.60;;
8656;SDS011;4366;50.764;7.184;2022-07-06T19:57:31;0.70;;;0.70;;
8656;SDS011;4366;50.764;7.184;2022-07-06T20:02:32;0.70;;;0.70;;
8656;SDS011;4366;50.764;7.184;2022-07-06T20:07:34;0.60;;;0.60;;
8656;SDS011;4366;50.764;7.184;2022-07-06T20:12:36;2.87;;;1.13;;
8656;SDS011;4366;50.764;7.184;2022-07-06T20:17:37;1.80;;;0.80;;
8656;SDS011;4366;50.764;7.184;2022-07-06T20:22:39;0.50;;;0.50;;
8656;SDS011;4366;50.764;7.184;2022-07-06T20:27:41;0.90;;;0.73;;
8656;SDS011;4366;50.764;7.184;2022-07-06T20:32:42;2.70;;;0.50;;
8656;SDS011;4366;50.764;7.184;2022-07-06T20:37:44;3.40;;;0.80;;
8656;SDS011;4366;50.764;7.184;2022-07-06T20:42:53;0.80;;;0.80;;
8656;SDS011;4366;50.764;7.184;2022-07-06T20:48:15;0.97;;;0.97;;
8656;SDS011;4366;50.764;7.184;2022-07-06T20:53:17;3.93;;;0.80;;
8656;SDS011;4366;50.764;7.184;2022-07-06T20:58:31;1.63;;;0.90;;
8656;SDS011;4366;50.764;7.184;2022-07-06T21:03:52;0.70;;;0.70;;
8656;SDS011;4366;50.764;7.184;2022-07-06T21:08:54;0.87;;;0.83;;
8656;SDS011;4366;50.764;7.184;2022-07-06T21:13:56;2.00;;;0.90;;
8656;SDS011;4366;50.764;7.184;2022-07-06T21:18:58;1.27;;;1.27;;
8656;SDS011;4366;50.764;7.184;2022-07-06T21:23:59;1.30;;;1.07;;
8656;SDS011;4366;50.764;7.184;2022-07-06T21:29:01;1.13;;;1.03;;
8656;SDS011;4366;50.764;7.184;2022-07-06T21:34:03;1.00;;;1.00;;
8656;SDS011;4366;50.764;7.184;2022-07-06T21:39:04;1.47;;;1.37;;
8656;SDS011;4366;50.764;7.184;2022-07-06T21:44:06;1.40;;;1.30;;
8656;SDS011;4366;50.764;7.184;2022-07-06T21:49:08;2.00;;;1.20;;
8656;SDS011;4366;50.764;7.184;2022-07-06T21:54:09;1.90;;;1.20;;
8656;SDS011;4366;50.764;7.184;2022-07-06T21:59:11;3.60;;;1.30;;
8656;SDS011;4366;50.764;7.184;2022-07-06T22:04:12;1.30;;;1.20;;
8656;SDS011;4366;50.764;7.184;2022-07-06T22:09:14;1.53;;;1.43;;
8656;SDS011;4366;50.764;7.184;2022-07-06T22:14:16;1.60;;;1.50;;
8656;SDS011;4366;50.764;7.184;2022-07-06T22:19:18;1.53;;;1.40;;
8656;SDS011;4366;50.764;7.184;2022-07-06T22:24:19;1.63;;;1.53;;
8656;SDS011;4366;50.764;7.184;2022-07-06T22:29:21;1.40;;;1.30;;
8656;SDS011;4366;50.764;7.184;2022-07-06T22:34:22;1.70;;;1.60;;
8656;SDS011;4366;50.764;7.184;2022-07-06T22:39:24;3.17;;;2.37;;
8656;SDS011;4366;50.764;7.184;2022-07-06T22:44:26;1.40;;;1.40;;
8656;SDS011;4366;50.764;7.184;2022-07-06T22:49:27;1.83;;;1.23;;
8656;SDS011;4366;50.764;7.184;2022-07-06T22:54:29;1.50;;;1.40;;
8656;SDS011;4366;50.764;7.184;2022-07-06T22:59:31;1.30;;;1.20;;
8656;SDS011;4366;50.764;7.184;2022-07-06T23:04:32;1.60;;;1.50;;
8656;SDS011;4366;50.764;7.184;2022-07-06T23:09:34;1.57;;;1.47;;
8656;SDS011;4366;50.764;7.184;2022-07-06T23:14:35;1.37;;;1.30;;
8656;SDS011;4366;50.764;7.184;2022-07-06T23:19:37;1.73;;;1.27;;
8656;SDS011;4366;50.764;7.184;2022-07-06T23:24:38;1.70;;;1.20;;
8656;SDS011;4366;50.764;7.184;2022-07-06T23:29:40;1.20;;;1.10;;
8656;SDS011;4366;50.764;7.184;2022-07-06T23:34:42;1.57;;;1.47;;
8656;SDS011;4366;50.764;7.184;2022-07-06T23:39:43;2.63;;;1.70;;
8656;SDS011;4366;50.764;7.184;2022-07-06T23:44:45;1.70;;;1.60;;
8656;SDS011;4366;50.764;7.184;2022-07-06T23:49:47;2.13;;;1.43;;
8656;SDS011;4366;50.764;7.184;2022-07-06T23:54:48;2.47;;;1.80;;
8656;SDS011;4366;50.764;7.184;2022-07-06T23:59:50;1.50;;;1.50;;
